Time;durP1;ratioP1;P1;durP2;ratioP2;P2;SDS_P1;SDS_P2;PMS_P1;PMS_P2;Temp;Humidity;BMP_temperature;BMP_pressure;BME280_temperature;BME280_humidity;BME280_pressure;Samples;Min_cycle;Max_cycle;Signal;HPM_P1;HPM_P2
2023/08/01 00:00:39;;;;;;;1.83;1.25;;;19.00;87.60;;;;;;5075720;28;20816;-62
2023/08/01 00:03:05;;;;;;;1.55;1.35;;;19.00;87.70;;;;;;5070677;28;20040;-62
2023/08/01 00:05:31;;;;;;;1.80;1.02;;;19.00;87.60;;;;;;5070388;28;20035;-63
2023/08/01 00:07:57;;;;;;;1.10;0.80;;;19.00;87.60;;;;;;5074548;28;20365;-62
2023/08/01 00:10:22;;;;;;;1.70;1.25;;;19.00;87.60;;;;;;5075713;28;20031;-62
2023/08/01 00:12:48;;;;;;;2.80;1.73;;;19.00;87.70;;;;;;5075967;28;20028;-62
2023/08/01 00:15:13;;;;;;;2.05;1.58;;;19.00;87.70;;;;;;5077432;28;20024;-62
2023/08/01 00:17:39;;;;;;;3.35;1.92;;;18.90;87.90;;;;;;5080743;28;20075;-62
2023/08/01 00:20:06;;;;;;;1.80;1.20;;;18.80;87.80;;;;;;5069737;28;20033;-63
2023/08/01 00:22:32;;;;;;;1.13;1.02;;;18.80;87.90;;;;;;5078121;28;20024;-63
2023/08/01 00:24:58;;;;;;;1.10;0.90;;;18.80;87.90;;;;;;5077619;28;20361;-63
2023/08/01 00:27:24;;;;;;;1.40;1.05;;;18.80;87.30;;;;;;5076106;28;20017;-63
2023/08/01 00:29:49;;;;;;;0.90;0.90;;;18.70;87.30;;;;;;5080418;28;20036;-62
2023/08/01 00:32:15;;;;;;;1.00;0.88;;;18.70;87.30;;;;;;5074620;28;20024;-63
2023/08/01 00:34:41;;;;;;;1.00;0.90;;;18.70;87.20;;;;;;5079722;28;20395;-63
2023/08/01 00:37:07;;;;;;;1.02;0.77;;;18.70;87.00;;;;;;5074802;28;20056;-62
2023/08/01 00:39:32;;;;;;;0.63;0.63;;;18.70;87.00;;;;;;5070928;28;20028;-62
2023/08/01 00:41:59;;;;;;;1.35;0.90;;;18.70;86.80;;;;;;5082221;28;20028;-62
2023/08/01 00:44:24;;;;;;;1.95;0.70;;;18.60;86.50;;;;;;5073378;28;20426;-62
2023/08/01 00:46:50;;;;;;;1.52;0.70;;;18.60;86.70;;;;;;5079096;28;20028;-62
2023/08/01 00:49:16;;;;;;;1.20;0.85;;;18.60;86.70;;;;;;5068779;28;20028;-62
2023/08/01 00:51:42;;;;;;;1.40;1.08;;;18.50;86.60;;;;;;5079383;28;20485;-62
2023/08/01 00:54:09;;;;;;;1.15;0.70;;;18.50;86.70;;;;;;5072314;28;20046;-62
2023/08/01 00:56:35;;;;;;;1.38;1.13;;;18.50;86.50;;;;;;5078992;28;20037;-62
2023/08/01 00:59:01;;;;;;;1.55;0.98;;;18.50;86.60;;;;;;5085171;28;20036;-62
2023/08/01 01:01:26;;;;;;;0.80;0.73;;;18.50;86.70;;;;;;5080559;28;20036;-62
2023/08/01 01:03:52;;;;;;;1.88;1.05;;;18.50;86.70;;;;;;5086416;28;20024;-62
2023/08/01 01:06:33;;;;;;;1.02;0.93;;;18.50;86.60;;;;;;5079725;28;20402;-62
2023/08/01 01:08:58;;;;;;;1.17;0.63;;;18.50;86.70;;;;;;5079006;28;20025;-63
2023/08/01 01:11:24;;;;;;;0.60;0.60;;;18.50;86.80;;;;;;5069526;28;20029;-62
2023/08/01 01:13:52;;;;;;;0.50;0.47;;;18.40;86.80;;;;;;5067429;28;20020;-62
2023/08/01 01:16:19;;;;;;;0.80;0.80;;;18.50;87.00;;;;;;5072412;28;20393;-63
2023/08/01 01:18:45;;;;;;;1.00;0.93;;;18.50;86.90;;;;;;5071876;28;20031;-63
2023/08/01 01:21:11;;;;;;;0.98;0.90;;;18.50;86.80;;;;;;5069387;28;20131;-63
2023/08/01 01:23:37;;;;;;;1.35;0.90;;;18.50;86.90;;;;;;5079930;28;20028;-63
2023/08/01 01:26:06;;;;;;;1.38;1.05;;;18.50;86.90;;;;;;5078919;28;20487;-63
2023/08/01 01:28:32;;;;;;;1.58;1.10;;;18.50;87.00;;;;;;5063270;28;20024;-63
2023/08/01 01:30:59;;;;;;;1.50;0.90;;;18.40;86.90;;;;;;5075165;28;20441;-62
2023/08/01 01:33:25;;;;;;;1.05;0.75;;;18.40;87.00;;;;;;5079666;28;20067;-62
2023/08/01 01:35:51;;;;;;;0.70;0.50;;;18.40;87.00;;;;;;5073837;28;20068;-61
2023/08/01 01:38:17;;;;;;;3.22;1.48;;;18.40;87.10;;;;;;5073131;28;20491;-62
2023/08/01 01:40:42;;;;;;;3.55;1.40;;;18.40;87.00;;;;;;5075229;28;20035;-62
2023/08/01 01:43:08;;;;;;;2.25;0.98;;;18.40;87.00;;;;;;5062889;28;20155;-62
2023/08/01 01:45:35;;;;;;;1.00;0.90;;;18.40;87.00;;;;;;5065486;28;20048;-62
2023/08/01 01:48:00;;;;;;;1.38;0.95;;;18.40;87.00;;;;;;5072464;28;20043;-62
2023/08/01 01:50:26;;;;;;;4.30;1.40;;;18.40;87.00;;;;;;5079361;28;20028;-62
2023/08/01 01:52:52;;;;;;;1.13;0.68;;;18.30;87.00;;;;;;5081717;28;20478;-62
2023/08/01 01:55:18;;;;;;;1.00;0.70;;;18.30;87.10;;;;;;5077890;28;20054;-62
2023/08/01 01:57:43;;;;;;;4.65;1.30;;;18.30;87.10;;;;;;5078396;28;20040;-62
2023/08/01 02:00:10;;;;;;;1.33;1.17;;;18.30;87.20;;;;;;5077315;28;20399;-62
2023/08/01 02:02:36;;;;;;;1.65;1.15;;;18.30;87.30;;;;;;5075256;28;20107;-62
2023/08/01 02:05:03;;;;;;;1.35;1.20;;;18.20;87.30;;;;;;5080495;28;20099;-61
2023/08/01 02:07:30;;;;;;;1.35;1.00;;;18.20;87.40;;;;;;5073177;28;20048;-62
2023/08/01 02:09:55;;;;;;;1.80;1.23;;;18.20;87.40;;;;;;5098323;28;20031;-62
2023/08/01 02:12:21;;;;;;;1.52;1.15;;;18.20;87.50;;;;;;5080295;28;20032;-62
2023/08/01 02:14:47;;;;;;;2.03;1.30;;;18.20;87.30;;;;;;5082908;28;20016;-62
2023/08/01 02:17:12;;;;;;;1.35;0.90;;;18.20;87.30;;;;;;5083028;28;20392;-62
2023/08/01 02:19:38;;;;;;;1.20;1.10;;;18.20;87.50;;;;;;5076251;28;20036;-62
2023/08/01 02:22:04;;;;;;;1.50;1.35;;;18.10;87.50;;;;;;5079674;28;20145;-62
2023/08/01 02:24:30;;;;;;;1.92;1.30;;;18.20;87.60;;;;;;5084684;28;20049;-62
2023/08/01 02:26:56;;;;;;;1.38;1.27;;;18.20;87.60;;;;;;5081109;28;20449;-62
2023/08/01 02:29:21;;;;;;;2.83;1.15;;;18.20;87.40;;;;;;5078060;28;20033;-62
2023/08/01 02:31:47;;;;;;;1.48;1.13;;;18.20;87.40;;;;;;5074961;28;20078;-62
2023/08/01 02:34:13;;;;;;;1.85;1.17;;;18.10;87.50;;;;;;5076429;28;20062;-62
2023/08/01 02:36:40;;;;;;;1.98;1.42;;;18.20;87.60;;;;;;5066467;28;20060;-62
2023/08/01 02:39:06;;;;;;;1.42;1.30;;;18.20;87.50;;;;;;5073205;28;20036;-62
2023/08/01 02:41:32;;;;;;;2.42;1.45;;;18.20;87.50;;;;;;5077201;28;20098;-62
2023/08/01 02:43:58;;;;;;;6.22;2.15;;;18.10;87.50;;;;;;5082720;28;20501;-62
2023/08/01 02:46:23;;;;;;;1.45;1.35;;;18.10;87.60;;;;;;5077928;28;20033;-62
2023/08/01 02:48:49;;;;;;;1.08;0.90;;;18.00;87.80;;;;;;5073623;28;20051;-63
2023/08/01 02:51:15;;;;;;;4.35;1.85;;;18.00;87.90;;;;;;5080154;28;20119;-63
2023/08/01 02:53:41;;;;;;;2.13;1.27;;;18.00;88.10;;;;;;5076995;28;20037;-63
2023/08/01 02:56:09;;;;;;;2.72;1.45;;;17.90;88.20;;;;;;5084563;28;20073;-62
2023/08/01 02:58:35;;;;;;;2.58;1.73;;;17.90;88.20;;;;;;5074620;28;20029;-62
2023/08/01 03:01:01;;;;;;;2.53;1.20;;;17.90;88.10;;;;;;5072088;28;20047;-63
2023/08/01 03:03:27;;;;;;;2.22;1.48;;;17.90;88.10;;;;;;5058088;28;20020;-62
2023/08/01 03:05:52;;;;;;;2.00;1.10;;;17.90;88.00;;;;;;5077956;28;20447;-63
2023/08/01 03:08:18;;;;;;;3.55;1.67;;;18.00;88.00;;;;;;5076660;28;20532;-63
2023/08/01 03:10:44;;;;;;;2.55;1.48;;;18.00;88.00;;;;;;5079235;28;20028;-62
2023/08/01 03:13:10;;;;;;;3.58;1.45;;;17.90;88.00;;;;;;5071551;28;20044;-62
2023/08/01 03:15:36;;;;;;;1.75;0.85;;;17.90;88.00;;;;;;5070846;28;20110;-63
2023/08/01 03:18:02;;;;;;;1.17;1.08;;;18.00;88.00;;;;;;5082632;28;20032;-63
2023/08/01 03:20:28;;;;;;;2.85;1.23;;;18.00;87.90;;;;;;5079897;28;20044;-62
2023/08/01 03:22:54;;;;;;;3.55;0.93;;;18.10;87.90;;;;;;5076121;28;20056;-63
2023/08/01 03:25:19;;;;;;;1.33;1.20;;;18.10;87.80;;;;;;5080177;28;20024;-63
2023/08/01 03:27:45;;;;;;;1.63;0.90;;;18.10;87.80;;;;;;5077980;28;20360;-62
2023/08/01 03:30:11;;;;;;;5.30;2.22;;;18.10;87.70;;;;;;5076644;28;20038;-62
2023/08/01 03:32:37;;;;;;;3.30;1.67;;;18.10;87.80;;;;;;5080812;28;20055;-63
2023/08/01 03:35:04;;;;;;;2.25;1.33;;;18.00;88.00;;;;;;5085732;28;20826;-62
2023/08/01 03:37:30;;;;;;;5.93;1.92;;;18.00;88.10;;;;;;5082848;28;20021;-63
2023/08/01 03:39:55;;;;;;;1.75;1.10;;;18.00;88.20;;;;;;5078335;28;20104;-63
2023/08/01 03:42:21;;;;;;;1.77;1.15;;;18.10;88.20;;;;;;5079670;28;20020;-62
2023/08/01 03:44:47;;;;;;;4.88;1.50;;;18.10;88.10;;;;;;5078521;28;20028;-63
2023/08/01 03:47:12;;;;;;;1.38;1.00;;;18.10;88.10;;;;;;5082420;28;20127;-63
2023/08/01 03:49:38;;;;;;;2.33;1.45;;;18.10;88.10;;;;;;5081053;28;20039;-62
2023/08/01 03:52:05;;;;;;;8.52;1.98;;;18.10;88.10;;;;;;5065117;28;20041;-62
2023/08/01 03:54:31;;;;;;;4.10;1.63;;;18.10;88.20;;;;;;5069239;28;20028;-62
2023/08/01 03:56:56;;;;;;;2.50;1.50;;;18.10;88.30;;;;;;5072608;28;20092;-62
2023/08/01 03:59:22;;;;;;;5.40;2.35;;;18.10;88.30;;;;;;5074557;28;20319;-63
2023/08/01 04:01:48;;;;;;;4.82;2.33;;;18.10;88.30;;;;;;5067792;28;20024;-63
2023/08/01 04:04:14;;;;;;;2.80;1.30;;;18.10;88.40;;;;;;5075897;28;20035;-63
2023/08/01 04:06:40;;;;;;;3.78;1.48;;;18.10;88.50;;;;;;5070257;28;20091;-63
2023/08/01 04:09:08;;;;;;;5.25;1.55;;;18.10;88.40;;;;;;5078282;28;20444;-62
2023/08/01 04:11:34;;;;;;;3.13;1.83;;;18.10;88.40;;;;;;5074935;28;20059;-62
2023/08/01 04:14:00;;;;;;;2.88;2.03;;;18.10;88.60;;;;;;5071629;28;20052;-63
2023/08/01 04:16:25;;;;;;;3.90;1.70;;;18.10;88.80;;;;;;5073200;28;20035;-63
2023/08/01 04:18:51;;;;;;;2.20;1.58;;;18.00;88.90;;;;;;5073999;28;20102;-62
2023/08/01 04:21:18;;;;;;;3.03;1.33;;;18.00;88.90;;;;;;5075554;28;20028;-62
2023/08/01 04:23:43;;;;;;;4.00;1.65;;;18.10;88.90;;;;;;5080615;28;20039;-62
2023/08/01 04:26:09;;;;;;;4.10;1.77;;;18.10;88.90;;;;;;5078595;28;20456;-62
2023/08/01 04:28:35;;;;;;;1.30;1.17;;;18.10;88.80;;;;;;5070411;28;20021;-62
2023/08/01 04:31:01;;;;;;;5.70;2.38;;;18.10;88.80;;;;;;5078112;28;20109;-62
2023/08/01 04:33:26;;;;;;;4.47;1.40;;;18.20;88.90;;;;;;5077486;28;20024;-62
2023/08/01 04:35:52;;;;;;;3.75;1.67;;;18.10;88.80;;;;;;5074611;28;20048;-62
2023/08/01 04:38:18;;;;;;;6.28;1.92;;;18.10;88.80;;;;;;5071443;28;20056;-61
2023/08/01 04:40:44;;;;;;;5.47;2.00;;;18.10;88.80;;;;;;5079673;28;20040;-62
2023/08/01 04:43:11;;;;;;;3.95;1.40;;;18.10;88.80;;;;;;5069119;28;20152;-62
2023/08/01 04:45:37;;;;;;;3.95;1.70;;;18.20;88.80;;;;;;5075264;28;20024;-62
2023/08/01 04:48:02;;;;;;;2.80;1.60;;;18.20;88.80;;;;;;5068246;28;20024;-62
2023/08/01 04:50:28;;;;;;;2.58;1.55;;;18.20;88.80;;;;;;5076116;28;20047;-62
2023/08/01 04:52:54;;;;;;;2.10;1.20;;;18.20;88.80;;;;;;5079520;28;20059;-62
2023/08/01 04:55:20;;;;;;;3.17;1.63;;;18.20;88.80;;;;;;5079386;28;20031;-63
2023/08/01 04:57:45;;;;;;;3.42;1.70;;;18.20;88.90;;;;;;5071352;28;20024;-63
2023/08/01 05:00:11;;;;;;;1.95;1.70;;;18.10;89.00;;;;;;5077136;28;20051;-61
2023/08/01 05:02:37;;;;;;;7.00;2.00;;;18.20;89.00;;;;;;5075552;28;20083;-61
2023/08/01 05:05:03;;;;;;;2.47;1.25;;;18.20;88.90;;;;;;5060207;28;20020;-62
2023/08/01 05:07:29;;;;;;;2.22;1.60;;;18.10;88.80;;;;;;5077539;28;20024;-62
2023/08/01 05:09:55;;;;;;;4.40;1.50;;;18.10;88.80;;;;;;5079155;28;20386;-62
2023/08/01 05:12:21;;;;;;;1.90;1.35;;;18.20;88.90;;;;;;5088107;28;20039;-62
2023/08/01 05:14:47;;;;;;;3.08;1.48;;;18.20;88.80;;;;;;5088353;28;20498;-62
2023/08/01 05:17:12;;;;;;;3.30;1.30;;;18.20;88.70;;;;;;5079408;28;20032;-62
2023/08/01 05:19:38;;;;;;;6.25;1.50;;;18.20;88.70;;;;;;5082138;28;20431;-62
2023/08/01 05:22:04;;;;;;;3.38;1.40;;;18.20;88.80;;;;;;5082017;28;20020;-62
2023/08/01 05:24:30;;;;;;;4.05;1.38;;;18.20;88.70;;;;;;5075490;28;20347;-62
2023/08/01 05:26:55;;;;;;;2.53;1.23;;;18.30;88.70;;;;;;5070059;28;20032;-62
2023/08/01 05:29:21;;;;;;;3.83;1.88;;;18.30;88.70;;;;;;5067184;28;20053;-62
2023/08/01 05:31:47;;;;;;;2.70;1.70;;;18.30;88.70;;;;;;5074837;28;20024;-62
2023/08/01 05:34:12;;;;;;;1.80;1.15;;;18.30;88.80;;;;;;5080134;28;20029;-62
2023/08/01 05:36:38;;;;;;;2.10;1.35;;;18.30;88.70;;;;;;5067485;28;20049;-63
2023/08/01 05:39:04;;;;;;;2.83;1.67;;;18.30;88.60;;;;;;5075478;28;20510;-63
2023/08/01 05:41:29;;;;;;;4.35;1.88;;;18.30;88.60;;;;;;5077518;28;20028;-63
2023/08/01 05:43:56;;;;;;;2.83;1.23;;;18.30;88.60;;;;;;5075900;28;20051;-63
2023/08/01 05:46:22;;;;;;;1.58;1.13;;;18.30;88.60;;;;;;5085163;28;20035;-63
2023/08/01 05:48:48;;;;;;;2.78;1.60;;;18.30;88.60;;;;;;5075908;28;20020;-63
2023/08/01 05:51:13;;;;;;;3.22;1.35;;;18.40;88.60;;;;;;5083399;28;20037;-63
2023/08/01 05:53:39;;;;;;;5.00;1.48;;;18.40;88.50;;;;;;5083816;28;20803;-63
2023/08/01 05:56:05;;;;;;;2.97;1.20;;;18.40;88.40;;;;;;5077214;28;20068;-62
2023/08/01 05:58:31;;;;;;;2.05;0.95;;;18.40;88.30;;;;;;5073671;28;20036;-62
2023/08/01 06:00:57;;;;;;;3.47;2.30;;;18.40;88.40;;;;;;5075669;28;20494;-62
2023/08/01 06:03:22;;;;;;;6.22;1.80;;;18.50;88.40;;;;;;5079258;28;20475;-62
2023/08/01 06:05:49;;;;;;;3.47;1.95;;;18.50;88.30;;;;;;5073650;28;20024;-62
2023/08/01 06:08:15;;;;;;;3.90;1.73;;;18.50;88.20;;;;;;5076352;28;20166;-62
2023/08/01 06:10:41;;;;;;;7.40;2.22;;;18.60;87.90;;;;;;5072744;28;20037;-62
2023/08/01 06:13:08;;;;;;;5.65;1.48;;;18.60;87.90;;;;;;5069903;28;20119;-62
2023/08/01 06:15:33;;;;;;;3.88;2.15;;;18.60;87.70;;;;;;5070263;28;20349;-61
2023/08/01 06:17:59;;;;;;;3.17;2.03;;;18.50;87.50;;;;;;5072822;28;20016;-62
2023/08/01 06:20:25;;;;;;;5.32;1.92;;;18.40;87.30;;;;;;5077092;28;20434;-62
2023/08/01 06:22:51;;;;;;;1.67;1.05;;;18.40;87.40;;;;;;5071375;28;20052;-62
2023/08/01 06:25:17;;;;;;;5.20;1.85;;;18.50;87.50;;;;;;5073736;28;20079;-62
2023/08/01 06:27:42;;;;;;;4.55;1.77;;;18.50;87.50;;;;;;5079142;28;20029;-62
2023/08/01 06:30:09;;;;;;;3.20;1.85;;;18.60;87.40;;;;;;5079157;28;20031;-62
2023/08/01 06:32:34;;;;;;;1.40;1.30;;;18.60;87.20;;;;;;5077907;28;20046;-62
2023/08/01 06:35:00;;;;;;;2.25;1.38;;;18.70;87.20;;;;;;5069016;28;20111;-62
2023/08/01 06:37:26;;;;;;;2.53;1.48;;;18.70;87.00;;;;;;5074397;28;20048;-62
2023/08/01 06:39:51;;;;;;;2.38;1.17;;;18.70;87.00;;;;;;5081807;28;20483;-62
2023/08/01 06:42:17;;;;;;;1.42;1.27;;;18.80;87.00;;;;;;5080573;28;20028;-62
2023/08/01 06:44:43;;;;;;;6.35;1.80;;;18.80;86.90;;;;;;5081690;28;20491;-62
2023/08/01 06:47:08;;;;;;;4.55;1.35;;;18.80;86.90;;;;;;5081452;28;20551;-62
2023/08/01 06:49:34;;;;;;;3.42;1.40;;;18.90;86.60;;;;;;5079027;28;20035;-62
2023/08/01 06:52:00;;;;;;;5.57;1.15;;;18.90;86.50;;;;;;5077949;28;20437;-62
2023/08/01 06:54:25;;;;;;;6.72;1.75;;;19.00;86.30;;;;;;5080680;28;20040;-62
2023/08/01 06:56:51;;;;;;;2.55;1.70;;;19.00;86.20;;;;;;5076438;28;20028;-62
2023/08/01 06:59:17;;;;;;;4.97;1.45;;;19.00;86.00;;;;;;5078698;28;20440;-62
2023/08/01 07:01:43;;;;;;;2.72;1.38;;;19.10;86.00;;;;;;5057818;28;20440;-62
2023/08/01 07:04:13;;;;;;;2.70;1.77;;;19.00;85.50;;;;;;5079817;28;20028;-62
2023/08/01 07:06:39;;;;;;;5.63;1.92;;;19.00;85.70;;;;;;5072353;28;20414;-62
2023/08/01 07:09:05;;;;;;;3.85;1.95;;;19.10;85.70;;;;;;5077150;28;20035;-63
2023/08/01 07:11:31;;;;;;;2.38;1.40;;;19.10;85.10;;;;;;5067294;28;20036;-61
2023/08/01 07:13:56;;;;;;;5.70;1.45;;;19.10;85.10;;;;;;5068776;28;20479;-63
2023/08/01 07:16:22;;;;;;;3.53;1.20;;;19.10;85.20;;;;;;5080162;28;20029;-63
2023/08/01 07:18:48;;;;;;;3.35;2.03;;;19.20;85.20;;;;;;5072999;28;20028;-62
2023/08/01 07:21:14;;;;;;;4.82;2.47;;;19.20;84.40;;;;;;5070612;28;20036;-62
2023/08/01 07:23:40;;;;;;;2.60;1.27;;;19.20;84.30;;;;;;5072376;28;20028;-62
2023/08/01 07:26:06;;;;;;;4.57;1.73;;;19.30;84.60;;;;;;5073484;28;20459;-64
2023/08/01 07:28:32;;;;;;;3.28;1.75;;;19.30;84.50;;;;;;5073487;28;20060;-62
2023/08/01 07:31:05;;;;;;;2.13;1.92;;;19.40;84.40;;;;;;5077985;28;20116;-62
2023/08/01 07:33:32;;;;;;;3.55;1.52;;;19.40;84.10;;;;;;5073424;28;20079;-61
2023/08/01 07:35:58;;;;;;;3.60;1.73;;;19.30;84.10;;;;;;5072760;28;20105;-61
2023/08/01 07:38:24;;;;;;;2.05;0.90;;;19.30;84.10;;;;;;5070886;28;20509;-63
2023/08/01 07:40:50;;;;;;;1.60;1.33;;;19.40;84.30;;;;;;5072390;28;20119;-61
2023/08/01 07:43:16;;;;;;;2.97;1.52;;;19.40;83.50;;;;;;5066117;28;20028;-61
2023/08/01 07:45:42;;;;;;;2.05;1.13;;;19.40;83.60;;;;;;5071978;28;20024;-61
2023/08/01 07:48:07;;;;;;;3.85;1.05;;;19.60;83.20;;;;;;5063004;28;20020;-62
2023/08/01 07:50:33;;;;;;;2.30;1.65;;;19.70;82.50;;;;;;5069930;28;20029;-62
2023/08/01 07:52:59;;;;;;;1.05;0.70;;;19.80;82.50;;;;;;5068160;28;20097;-62
2023/08/01 07:55:25;;;;;;;3.42;1.50;;;19.90;82.40;;;;;;5074369;28;20426;-62
2023/08/01 07:57:50;;;;;;;2.50;0.93;;;20.10;81.70;;;;;;5075627;28;20108;-62
2023/08/01 08:00:16;;;;;;;1.20;1.10;;;20.20;80.70;;;;;;5068828;28;20028;-61
2023/08/01 08:02:44;;;;;;;1.27;0.82;;;20.30;80.60;;;;;;5078890;28;20028;-61
2023/08/01 08:05:10;;;;;;;2.20;1.27;;;20.40;79.90;;;;;;5076575;28;20032;-62
2023/08/01 08:07:37;;;;;;;3.22;1.40;;;20.50;80.10;;;;;;5076953;28;20033;-62
2023/08/01 08:10:06;;;;;;;5.93;1.50;;;20.70;79.50;;;;;;5073397;28;20016;-62
2023/08/01 08:12:32;;;;;;;0.98;0.88;;;20.80;78.90;;;;;;5071861;28;20032;-62
2023/08/01 08:14:57;;;;;;;1.20;0.93;;;20.70;78.80;;;;;;5070163;28;20083;-62
2023/08/01 08:17:23;;;;;;;0.80;0.80;;;20.70;78.70;;;;;;5077533;28;20391;-62
2023/08/01 08:19:49;;;;;;;1.15;0.98;;;20.60;78.80;;;;;;5077512;28;20059;-62
2023/08/01 08:22:14;;;;;;;3.83;1.40;;;20.70;79.20;;;;;;5073282;28;20036;-61
2023/08/01 08:24:40;;;;;;;4.32;1.63;;;20.60;79.30;;;;;;5076473;28;20090;-61
2023/08/01 08:27:06;;;;;;;4.97;1.25;;;20.60;79.40;;;;;;5079627;28;20039;-61
2023/08/01 08:29:32;;;;;;;2.90;1.25;;;20.40;78.90;;;;;;5071058;28;20024;-62
2023/08/01 08:31:58;;;;;;;2.67;1.15;;;20.20;79.30;;;;;;5068529;28;20040;-61
2023/08/01 08:34:24;;;;;;;1.88;1.33;;;20.00;79.90;;;;;;5080900;28;20028;-62
2023/08/01 08:36:50;;;;;;;3.60;1.10;;;19.80;80.30;;;;;;5077178;28;20059;-61
2023/08/01 08:39:17;;;;;;;1.98;1.10;;;19.70;81.00;;;;;;5084398;28;20568;-62
2023/08/01 08:41:49;;;;;;;2.42;1.05;;;19.90;81.40;;;;;;5074430;28;20112;-62
2023/08/01 08:44:16;;;;;;;4.53;1.15;;;20.10;81.40;;;;;;5072026;28;20028;-62
2023/08/01 08:46:44;;;;;;;1.30;1.10;;;20.20;81.20;;;;;;5081905;28;20098;-62
2023/08/01 08:49:10;;;;;;;4.53;1.02;;;20.30;80.90;;;;;;5063283;28;20127;-63
2023/08/01 08:51:39;;;;;;;1.58;0.98;;;20.30;80.30;;;;;;5074236;28;20036;-62
2023/08/01 08:54:06;;;;;;;1.75;1.33;;;20.50;80.50;;;;;;5073890;28;20480;-62
2023/08/01 08:56:33;;;;;;;1.63;1.13;;;20.70;80.10;;;;;;5068697;28;20031;-62
2023/08/01 08:58:59;;;;;;;3.35;0.95;;;20.80;79.80;;;;;;5074683;28;20456;-62
2023/08/01 09:01:26;;;;;;;1.33;0.93;;;20.90;79.50;;;;;;5078889;28;20029;-62
2023/08/01 09:03:53;;;;;;;1.60;1.38;;;20.80;79.30;;;;;;5070748;28;20025;-62
2023/08/01 09:06:31;;;;;;;5.43;1.25;;;20.70;79.50;;;;;;5077744;28;20020;-62
2023/08/01 09:09:09;;;;;;;2.65;1.48;;;20.80;79.50;;;;;;5066843;28;20024;-62
2023/08/01 09:11:44;;;;;;;1.65;1.35;;;20.80;79.60;;;;;;5072103;28;20024;-62
2023/08/01 09:14:10;;;;;;;2.65;0.98;;;20.90;79.00;;;;;;5072934;28;20513;-62
2023/08/01 09:16:36;;;;;;;0.95;0.75;;;20.90;78.90;;;;;;5071989;28;20642;-62
2023/08/01 09:19:02;;;;;;;0.85;0.68;;;21.00;77.50;;;;;;5070594;28;20033;-62
2023/08/01 09:21:35;;;;;;;1.10;1.00;;;21.20;76.30;;;;;;5074247;28;20063;-62
2023/08/01 09:24:12;;;;;;;1.85;0.80;;;21.30;75.50;;;;;;5066826;28;20395;-62
2023/08/01 09:26:38;;;;;;;1.70;0.90;;;21.40;74.60;;;;;;5066836;28;20081;-62
2023/08/01 09:29:04;;;;;;;0.90;0.50;;;21.50;73.60;;;;;;5075851;28;20017;-62
2023/08/01 09:31:33;;;;;;;0.82;0.70;;;21.60;73.90;;;;;;5074075;28;20369;-62
2023/08/01 09:33:59;;;;;;;2.67;1.25;;;21.70;72.80;;;;;;5078912;28;20036;-62
2023/08/01 09:36:25;;;;;;;2.10;1.20;;;21.80;71.80;;;;;;5074416;28;20060;-61
2023/08/01 09:38:51;;;;;;;0.85;0.80;;;21.80;71.30;;;;;;5071788;28;20043;-61
2023/08/01 09:41:20;;;;;;;1.80;1.38;;;21.80;71.30;;;;;;5072555;28;20041;-62
2023/08/01 09:43:50;;;;;;;4.47;1.02;;;21.80;71.80;;;;;;5083584;28;20067;-62
2023/08/01 09:46:16;;;;;;;6.28;1.52;;;21.60;71.10;;;;;;5078094;28;20390;-62
2023/08/01 09:48:43;;;;;;;1.90;0.80;;;21.40;70.90;;;;;;5077370;28;20039;-61
2023/08/01 09:51:14;;;;;;;2.20;0.70;;;21.20;70.40;;;;;;5076110;28;20044;-61
2023/08/01 09:53:56;;;;;;;0.60;0.60;;;21.10;71.60;;;;;;5074370;28;20024;-61
2023/08/01 09:56:26;;;;;;;1.75;0.93;;;21.10;72.00;;;;;;5078211;28;20037;-60
2023/08/01 09:58:54;;;;;;;0.63;0.57;;;21.20;71.80;;;;;;5077194;28;20491;-61
2023/08/01 10:01:22;;;;;;;1.02;0.60;;;21.20;72.00;;;;;;5073852;28;20505;-61
2023/08/01 10:03:49;;;;;;;3.22;1.38;;;21.40;72.30;;;;;;5073059;28;20025;-61
2023/08/01 10:06:23;;;;;;;2.65;1.15;;;21.70;70.60;;;;;;5082445;28;20037;-61
2023/08/01 10:08:51;;;;;;;1.83;1.02;;;21.90;70.20;;;;;;5058726;28;20036;-61
2023/08/01 10:11:19;;;;;;;1.95;1.20;;;22.00;70.00;;;;;;5076457;28;20025;-61
2023/08/01 10:13:46;;;;;;;0.75;0.75;;;22.10;69.00;;;;;;5070499;28;20036;-61
2023/08/01 10:16:13;;;;;;;2.80;0.75;;;22.10;69.10;;;;;;5074609;28;20487;-61
2023/08/01 10:18:39;;;;;;;2.03;0.68;;;22.20;68.30;;;;;;5075703;28;20186;-62
2023/08/01 10:21:16;;;;;;;1.40;0.95;;;22.30;68.40;;;;;;5077328;28;20601;-62
2023/08/01 10:23:43;;;;;;;2.13;0.70;;;22.60;67.50;;;;;;5074985;28;20055;-62
2023/08/01 10:26:10;;;;;;;1.90;1.33;;;22.70;66.90;;;;;;5072505;28;20029;-62
2023/08/01 10:28:40;;;;;;;1.27;0.75;;;22.90;67.30;;;;;;5077898;28;20032;-62
2023/08/01 10:31:14;;;;;;;0.88;0.88;;;23.10;67.30;;;;;;5071559;28;20032;-61
2023/08/01 10:33:42;;;;;;;3.67;1.35;;;23.10;65.90;;;;;;5074956;28;20024;-61
2023/08/01 10:36:17;;;;;;;2.85;1.05;;;23.00;65.90;;;;;;5073961;28;20041;-61
2023/08/01 10:38:51;;;;;;;0.90;0.90;;;23.10;67.20;;;;;;5070687;28;20055;-61
2023/08/01 10:41:20;;;;;;;2.05;0.60;;;23.10;66.70;;;;;;5083520;28;20066;-62
2023/08/01 10:43:45;;;;;;;0.95;0.60;;;23.00;65.90;;;;;;5068100;28;20035;-61
2023/08/01 10:46:11;;;;;;;1.52;0.90;;;23.00;64.10;;;;;;5074781;28;20028;-61
2023/08/01 10:48:51;;;;;;;3.78;1.25;;;22.90;64.60;;;;;;5072137;28;20032;-60
2023/08/01 10:51:17;;;;;;;1.02;0.80;;;23.00;63.50;;;;;;5074030;28;20028;-61
2023/08/01 10:53:43;;;;;;;2.63;0.70;;;23.10;62.70;;;;;;5069163;28;20059;-61
2023/08/01 10:56:16;;;;;;;4.45;1.50;;;23.20;63.10;;;;;;5075697;28;20039;-61
2023/08/01 10:58:41;;;;;;;1.00;0.70;;;23.40;62.80;;;;;;5076178;28;20032;-61
2023/08/01 11:01:07;;;;;;;1.45;0.88;;;23.50;61.30;;;;;;5075856;28;20534;-62
2023/08/01 11:03:37;;;;;;;2.20;0.80;;;23.40;61.20;;;;;;5078882;28;20027;-62
2023/08/01 11:06:05;;;;;;;2.15;0.70;;;23.50;61.40;;;;;;5079614;28;20139;-62
2023/08/01 11:08:49;;;;;;;2.55;0.77;;;23.60;61.00;;;;;;5071325;28;20040;-61
2023/08/01 11:11:16;;;;;;;1.27;0.80;;;23.70;60.30;;;;;;5079013;28;20111;-62
2023/08/01 11:13:50;;;;;;;1.02;0.95;;;23.90;61.10;;;;;;5075219;28;20043;-61
2023/08/01 11:16:16;;;;;;;2.53;1.27;;;24.10;61.30;;;;;;5076760;28;20119;-61
2023/08/01 11:18:45;;;;;;;0.93;0.70;;;24.20;60.60;;;;;;5077890;28;20124;-61
2023/08/01 11:21:11;;;;;;;2.38;0.68;;;24.30;60.00;;;;;;5084027;28;20625;-61
2023/08/01 11:23:36;;;;;;;3.97;0.88;;;24.30;59.90;;;;;;5068549;28;20112;-61
2023/08/01 11:26:10;;;;;;;1.95;0.75;;;24.40;59.90;;;;;;5078686;28;20028;-61
2023/08/01 11:28:36;;;;;;;1.02;0.93;;;24.50;59.90;;;;;;5074389;28;20360;-62
2023/08/01 11:31:13;;;;;;;0.88;0.80;;;24.50;60.30;;;;;;5071030;28;20409;-61
2023/08/01 11:33:39;;;;;;;0.50;0.50;;;24.50;59.00;;;;;;5070532;28;20035;-61
2023/08/01 11:36:05;;;;;;;0.75;0.68;;;24.60;58.00;;;;;;5073226;28;20103;-62
2023/08/01 11:38:34;;;;;;;1.00;0.90;;;24.40;57.90;;;;;;5071250;28;20059;-62
2023/08/01 11:41:04;;;;;;;4.10;0.60;;;24.30;58.90;;;;;;5073379;28;20036;-61
2023/08/01 11:43:40;;;;;;;1.80;0.63;;;24.20;58.10;;;;;;5071540;28;20341;-61
2023/08/01 11:46:06;;;;;;;1.13;0.70;;;24.50;59.10;;;;;;5073209;28;20043;-62
2023/08/01 11:48:32;;;;;;;1.08;0.95;;;24.60;56.20;;;;;;5072158;28;20028;-62
2023/08/01 11:50:58;;;;;;;1.95;0.90;;;24.40;56.90;;;;;;5075878;28;20147;-61
2023/08/01 11:53:24;;;;;;;1.80;0.80;;;24.40;57.50;;;;;;5068100;28;20059;-62
2023/08/01 11:55:52;;;;;;;2.10;0.90;;;24.50;57.70;;;;;;5074770;28;20375;-61
2023/08/01 11:58:31;;;;;;;2.10;1.27;;;24.70;58.30;;;;;;5066690;28;20032;-60
2023/08/01 12:01:11;;;;;;;1.10;1.00;;;24.90;56.30;;;;;;5073485;28;20416;-61
2023/08/01 12:03:51;;;;;;;2.35;0.70;;;24.90;57.10;;;;;;5079693;28;20388;-62
2023/08/01 12:06:19;;;;;;;1.75;0.60;;;25.10;57.50;;;;;;5065323;28;20376;-62
2023/08/01 12:08:46;;;;;;;1.27;0.60;;;25.30;57.70;;;;;;5062834;28;20030;-62
2023/08/01 12:11:22;;;;;;;4.63;0.88;;;25.40;56.90;;;;;;5073513;28;20136;-62
2023/08/01 12:13:59;;;;;;;1.75;0.70;;;25.60;54.40;;;;;;5075751;28;20115;-62
2023/08/01 12:16:25;;;;;;;5.07;1.05;;;25.40;53.90;;;;;;5070427;28;20434;-62
2023/08/01 12:18:51;;;;;;;1.27;0.95;;;24.90;54.00;;;;;;5078863;28;20509;-61
2023/08/01 12:21:17;;;;;;;0.47;0.47;;;24.50;55.60;;;;;;5076856;28;20032;-61
2023/08/01 12:23:42;;;;;;;1.98;0.70;;;24.10;56.80;;;;;;5068719;28;20446;-62
2023/08/01 12:26:08;;;;;;;2.53;0.60;;;23.70;57.60;;;;;;5080095;28;20086;-61
2023/08/01 12:28:34;;;;;;;3.92;1.35;;;23.50;58.60;;;;;;5080413;28;20066;-61
2023/08/01 12:31:00;;;;;;;0.40;0.40;;;23.30;58.40;;;;;;5076310;28;20047;-61
2023/08/01 12:33:26;;;;;;;0.73;0.60;;;23.10;59.40;;;;;;5072951;28;20029;-61
2023/08/01 12:35:51;;;;;;;0.70;0.50;;;23.00;60.00;;;;;;5073876;28;20052;-61
2023/08/01 12:38:18;;;;;;;0.50;0.50;;;22.90;59.60;;;;;;5056004;28;20048;-60
2023/08/01 12:40:44;;;;;;;1.08;0.95;;;22.80;59.50;;;;;;5081216;28;20093;-62
2023/08/01 12:43:09;;;;;;;2.15;0.80;;;22.70;59.80;;;;;;5064795;28;20039;-62
2023/08/01 12:45:35;;;;;;;1.17;0.70;;;22.60;59.70;;;;;;5077873;28;20035;-61